createdAt,value
2018-07-21T00:00:10.278Z,80.60
2018-07-21T00:02:39.149Z,80.30
2018-07-21T00:05:08.882Z,80.40
2018-07-21T00:07:38.993Z,80.60
2018-07-21T00:10:08.185Z,80.60
2018-07-21T00:12:37.133Z,80.60
2018-07-21T00:15:05.930Z,80.80
2018-07-21T00:17:35.614Z,80.80
2018-07-21T00:20:04.828Z,80.80
2018-07-21T00:22:34.032Z,81.10
2018-07-21T00:25:02.819Z,81.50
2018-07-21T00:27:32.563Z,81.30
2018-07-21T00:30:02.752Z,81.50
2018-07-21T00:32:31.573Z,81.50
2018-07-21T00:35:00.417Z,81.60
2018-07-21T00:37:29.219Z,81.70
2018-07-21T00:39:58.953Z,81.70
2018-07-21T00:42:28.128Z,81.70
2018-07-21T00:44:57.742Z,81.70
2018-07-21T00:47:26.621Z,82.00
2018-07-21T00:49:55.433Z,82.10
2018-07-21T00:52:24.223Z,82.20
2018-07-21T00:54:53.162Z,82.30
2018-07-21T00:57:23.437Z,82.90
2018-07-21T00:59:52.227Z,82.20
2018-07-21T01:02:21.306Z,82.50
2018-07-21T01:04:50.240Z,82.50
2018-07-21T01:07:19.054Z,82.50
2018-07-21T01:09:48.139Z,82.70
2018-07-21T01:12:17.168Z,82.60
2018-07-21T01:14:46.929Z,82.80
2018-07-21T01:17:15.901Z,82.90
2018-07-21T01:19:45.358Z,83.00
2018-07-21T01:22:14.201Z,83.30
2018-07-21T01:24:43.323Z,83.20
2018-07-21T01:27:12.235Z,83.50
2018-07-21T01:29:41.617Z,83.40
2018-07-21T01:32:10.493Z,83.10
2018-07-21T01:34:39.937Z,83.20
2018-07-21T01:37:08.922Z,83.20
2018-07-21T01:39:37.751Z,83.00
2018-07-21T01:42:06.562Z,83.20
2018-07-21T01:44:35.361Z,83.20
2018-07-21T01:47:04.256Z,83.30
2018-07-21T01:49:33.036Z,83.30
2018-07-21T01:52:02.080Z,83.50
2018-07-21T01:54:31.049Z,83.30
2018-07-21T01:57:00.547Z,83.30
2018-07-21T01:59:29.326Z,83.40
2018-07-21T02:01:58.151Z,83.40
2018-07-21T02:04:26.918Z,83.50
2018-07-21T02:06:55.739Z,83.80
2018-07-21T02:09:24.725Z,83.70
2018-07-21T02:11:53.550Z,83.70
2018-07-21T02:14:22.516Z,83.70
2018-07-21T02:16:51.327Z,83.80
2018-07-21T02:19:21.441Z,83.90
2018-07-21T02:21:50.958Z,83.90
2018-07-21T02:24:19.762Z,84.00
2018-07-21T02:26:48.535Z,84.10
2018-07-21T02:29:17.332Z,83.90
2018-07-21T02:31:46.127Z,84.10
2018-07-21T02:34:15.238Z,84.20
2018-07-21T02:36:44.045Z,84.30
2018-07-21T02:39:13.310Z,84.50
2018-07-21T02:41:42.220Z,84.40
2018-07-21T02:44:11.039Z,84.70
2018-07-21T02:46:39.816Z,84.60
2018-07-21T02:49:08.627Z,84.70
2018-07-21T02:51:37.410Z,84.90
2018-07-21T02:54:06.269Z,85.00
2018-07-21T02:56:35.090Z,85.20
2018-07-21T02:59:04.603Z,85.30
2018-07-21T03:01:33.431Z,85.20
2018-07-21T03:04:02.267Z,85.20
2018-07-21T03:06:31.129Z,85.40
2018-07-21T03:09:00.267Z,85.30
2018-07-21T03:11:29.086Z,85.60
2018-07-21T03:13:57.873Z,85.60
2018-07-21T03:16:27.554Z,85.80
2018-07-21T03:18:56.542Z,86.00
2018-07-21T03:21:25.340Z,86.00
2018-07-21T03:23:54.174Z,86.40
2018-07-21T03:26:23.132Z,86.20
